Time;durP1;ratioP1;P1;durP2;ratioP2;P2;SDS_P1;SDS_P2;PMS_P1;PMS_P2;Temp;Humidity;BMP_temperature;BMP_pressure;BME280_temperature;BME280_humidity;BME280_pressure;Samples;Min_cycle;Max_cycle;Signal;HPM_P1;HPM_P2
2022/01/06 00:01:52;;;;;;;36.83;17.40;;;;;;;7.51;100.00;99092.50;5075406;28;20195;-76
2022/01/06 00:04:19;;;;;;;29.23;17.07;;;;;;;7.73;100.00;99135.75;5072007;28;20606;-77
2022/01/06 00:06:46;;;;;;;29.93;16.43;;;;;;;7.29;100.00;99063.91;5071125;28;20195;-76
2022/01/06 00:09:16;;;;;;;29.87;15.97;;;;;;;7.69;100.00;99150.34;5071348;28;20234;-77
2022/01/06 00:11:45;;;;;;;29.00;15.33;;;;;;;7.64;100.00;99146.81;5085272;28;20229;-78
2022/01/06 00:14:18;;;;;;;33.63;17.33;;;;;;;7.48;100.00;99150.97;5084944;28;20194;-77
2022/01/06 00:16:59;;;;;;;29.47;16.97;;;;;;;7.54;100.00;99146.69;5088069;28;20645;-76
2022/01/06 00:24:54;;;;;;;33.77;17.87;;;;;;;7.37;100.00;99147.38;5074784;28;20198;-77
2022/01/06 00:27:22;;;;;;;28.37;15.07;;;;;;;7.34;100.00;99143.91;5075063;28;20203;-79
2022/01/06 00:29:49;;;;;;;31.33;16.60;;;;;;;7.36;100.00;99145.63;5094282;28;20213;-78
2022/01/06 00:32:16;;;;;;;31.63;16.37;;;;;;;7.37;100.00;99157.69;5078936;28;20202;-75
2022/01/06 00:34:43;;;;;;;26.50;14.80;;;;;;;7.29;100.00;99148.97;5074070;28;20198;-78
2022/01/06 00:37:09;;;;;;;27.80;15.70;;;;;;;7.44;100.00;99164.66;5074444;28;20201;-76
2022/01/06 00:39:36;;;;;;;56.97;28.00;;;;;;;7.52;100.00;99157.03;5074479;28;20206;-76
2022/01/06 00:42:04;;;;;;;40.13;20.53;;;;;;;7.39;100.00;99119.00;5086800;28;20186;-77
2022/01/06 00:44:32;;;;;;;38.03;21.23;;;;;;;7.54;100.00;99154.44;5074664;28;20191;-76
2022/01/06 00:46:58;;;;;;;28.73;16.53;;;;;;;7.46;100.00;99162.94;5083346;28;20560;-77
2022/01/06 00:49:25;;;;;;;31.40;17.47;;;;;;;7.59;100.00;99163.13;5081179;28;20214;-76
2022/01/06 00:51:52;;;;;;;34.77;18.10;;;;;;;7.64;100.00;99156.28;5088550;28;20194;-78
2022/01/06 00:54:19;;;;;;;40.40;21.43;;;;;;;7.72;100.00;99164.97;5078832;28;20277;-78
2022/01/06 00:56:45;;;;;;;43.43;24.37;;;;;;;7.82;100.00;99172.84;5074178;28;20217;-77
2022/01/06 00:59:12;;;;;;;36.27;21.30;;;;;;;7.81;100.00;99175.41;5085407;28;20194;-77
2022/01/06 01:01:40;;;;;;;26.20;16.20;;;;;;;7.97;100.00;99169.56;5081356;28;20195;-77
2022/01/06 01:04:07;;;;;;;24.83;14.63;;;;;;;8.06;100.00;99168.81;5073406;28;20666;-77
2022/01/06 01:06:34;;;;;;;40.33;19.30;;;;;;;8.12;100.00;99169.72;5074047;28;20597;-76
2022/01/06 01:09:01;;;;;;;38.97;19.17;;;;;;;8.10;100.00;99170.56;5077117;28;20214;-78
2022/01/06 01:11:28;;;;;;;35.87;18.80;;;;;;;8.02;100.00;99160.16;5073083;28;20560;-76
2022/01/06 01:13:55;;;;;;;29.07;17.57;;;;;;;8.04;100.00;99163.63;5074437;28;20217;-78
2022/01/06 01:16:27;;;;;;;27.37;16.07;;;;;;;8.07;100.00;99153.31;5073274;28;20203;-77
2022/01/06 01:18:56;;;;;;;26.43;13.33;;;;;;;8.07;100.00;99147.28;5073741;28;20587;-76
2022/01/06 01:21:26;;;;;;;23.07;12.67;;;;;;;8.16;100.00;99160.28;5081629;28;20222;-77
2022/01/06 01:23:53;;;;;;;50.53;30.10;;;;;;;8.17;100.00;99157.72;5091298;28;20195;-76
2022/01/06 01:26:20;;;;;;;20.50;12.57;;;;;;;8.20;100.00;99155.19;5083353;28;20203;-76
2022/01/06 01:28:47;;;;;;;25.23;15.17;;;;;;;8.33;100.00;99163.94;5085798;28;20225;-77
2022/01/06 01:31:27;;;;;;;37.00;19.70;;;;;;;8.49;100.00;99177.84;5081141;28;20195;-77
2022/01/06 01:33:59;;;;;;;29.87;17.63;;;;;;;8.36;100.00;99182.03;5073223;28;20274;-77
2022/01/06 01:36:26;;;;;;;42.77;20.03;;;;;;;8.02;100.00;99191.13;5073372;28;20287;-78
2022/01/06 01:38:53;;;;;;;44.17;20.93;;;;;;;7.71;100.00;99183.88;5072851;28;20191;-78
2022/01/06 01:41:20;;;;;;;58.33;30.43;;;;;;;7.23;100.00;99185.00;5075092;28;20199;-76
2022/01/06 01:43:47;;;;;;;51.87;25.50;;;;;;;7.00;100.00;99188.94;5085265;28;20209;-77
2022/01/06 01:46:17;;;;;;;49.07;28.23;;;;;;;6.91;100.00;99187.13;5088514;28;20237;-77
2022/01/06 01:48:49;;;;;;;34.47;18.40;;;;;;;6.83;100.00;99177.53;5072624;28;20713;-76
2022/01/06 01:51:17;;;;;;;34.30;20.17;;;;;;;6.71;100.00;99174.75;5083465;28;20690;-77
2022/01/06 01:53:44;;;;;;;45.83;25.53;;;;;;;6.60;100.00;99174.59;5091110;28;20201;-77
2022/01/06 01:56:13;;;;;;;41.67;23.60;;;;;;;5.94;100.00;99058.53;5091320;28;20205;-76
2022/01/06 01:58:41;;;;;;;40.10;21.43;;;;;;;6.71;100.00;99172.19;5090897;28;20283;-77
2022/01/06 02:01:07;;;;;;;34.30;19.47;;;;;;;6.59;100.00;99172.00;5083220;28;20201;-76
2022/01/06 02:03:34;;;;;;;28.37;17.80;;;;;;;6.52;100.00;99170.19;5092254;28;20194;-77
2022/01/06 02:06:01;;;;;;;58.37;23.43;;;;;;;6.49;100.00;99164.13;5077247;28;20313;-76
2022/01/06 02:08:30;;;;;;;54.10;24.30;;;;;;;6.10;100.00;99096.53;5081302;28;20190;-77
2022/01/06 02:10:57;;;;;;;29.80;17.87;;;;;;;6.50;100.00;99170.13;5084286;28;20206;-77
2022/01/06 02:13:28;;;;;;;34.13;18.67;;;;;;;6.44;100.00;99162.31;5072192;28;20191;-75
2022/01/06 02:15:55;;;;;;;32.67;17.83;;;;;;;6.20;100.00;99147.34;5073473;28;20195;-76
2022/01/06 02:18:22;;;;;;;34.37;18.67;;;;;;;6.35;100.00;99167.34;5083906;28;20275;-76
2022/01/06 02:20:50;;;;;;;38.57;20.07;;;;;;;6.40;100.00;99160.53;5083372;28;20211;-76
2022/01/06 02:23:17;;;;;;;36.40;18.13;;;;;;;6.39;100.00;99162.22;5082506;28;20190;-76
2022/01/06 02:25:45;;;;;;;34.23;19.20;;;;;;;6.39;100.00;99169.97;5091982;28;20217;-78
2022/01/06 02:28:11;;;;;;;38.47;20.53;;;;;;;6.22;100.00;99132.78;5081831;28;20205;-76
2022/01/06 02:30:38;;;;;;;37.07;20.57;;;;;;;6.44;100.00;99176.06;5087066;28;20219;-76
2022/01/06 02:33:06;;;;;;;35.13;19.20;;;;;;;6.15;100.00;99123.22;5072199;28;20206;-77
2022/01/06 02:35:33;;;;;;;36.80;19.37;;;;;;;6.49;100.00;99181.31;5071538;28;20187;-78
2022/01/06 02:38:01;;;;;;;34.57;17.93;;;;;;;6.40;100.00;99176.84;5080904;28;20213;-76
2022/01/06 02:40:28;;;;;;;32.33;17.97;;;;;;;6.57;100.00;99183.97;5090605;28;20201;-76
2022/01/06 02:42:58;;;;;;;32.93;19.03;;;;;;;6.53;100.00;99179.63;5078106;28;20203;-78
2022/01/06 02:45:27;;;;;;;35.77;19.10;;;;;;;6.14;100.00;99136.91;5076552;28;20680;-76
2022/01/06 02:47:55;;;;;;;34.90;18.07;;;;;;;6.31;100.00;99184.41;5090211;28;20224;-77
2022/01/06 02:50:22;;;;;;;37.13;20.20;;;;;;;6.30;100.00;99180.13;5091758;28;20218;-78
2022/01/06 02:52:49;;;;;;;35.10;19.90;;;;;;;6.31;100.00;99166.38;5091628;28;20194;-77
2022/01/06 02:55:18;;;;;;;34.93;19.30;;;;;;;6.35;100.00;99167.34;5081503;28;20202;-77
2022/01/06 02:57:46;;;;;;;31.40;18.03;;;;;;;6.53;100.00;99162.47;5081751;28;20190;-76
2022/01/06 03:00:14;;;;;;;61.57;37.03;;;;;;;6.57;100.00;99153.06;5071584;28;20195;-77
2022/01/06 03:02:43;;;;;;;58.30;32.23;;;;;;;6.61;100.00;99140.28;5071881;28;20256;-76
2022/01/06 03:05:10;;;;;;;54.40;22.63;;;;;;;6.41;100.00;99109.09;5071525;28;20245;-77
2022/01/06 03:07:37;;;;;;;62.13;25.17;;;;;;;6.75;100.00;99143.06;5075545;28;20194;-77
2022/01/06 03:10:06;;;;;;;24.80;13.43;;;;;;;7.49;100.00;99147.50;5092150;28;20229;-76
2022/01/06 03:12:39;;;;;;;23.07;14.27;;;;;;;7.38;100.00;99169.72;5087143;28;20183;-79
2022/01/06 03:15:08;;;;;;;25.23;15.33;;;;;;;7.46;100.00;99175.84;5072994;28;20198;-76
2022/01/06 03:17:35;;;;;;;41.60;22.67;;;;;;;7.43;100.00;99168.06;5085996;28;20218;-77
2022/01/06 03:20:02;;;;;;;45.90;22.93;;;;;;;7.20;100.00;99156.63;5071563;28;20214;-78
2022/01/06 03:22:29;;;;;;;35.53;16.53;;;;;;;7.23;100.00;99164.38;5071436;28;20199;-76
2022/01/06 03:24:56;;;;;;;18.13;11.13;;;;;;;7.17;100.00;99158.28;5071627;28;20226;-76
2022/01/06 03:27:23;;;;;;;22.73;13.00;;;;;;;6.72;100.00;99076.91;5073236;28;20244;-78
2022/01/06 03:29:51;;;;;;;23.53;12.53;;;;;;;7.40;100.00;99159.44;5090408;28;20226;-76
2022/01/06 03:32:18;;;;;;;24.93;15.53;;;;;;;7.39;100.00;99155.13;5082037;28;20190;-77
2022/01/06 03:34:46;;;;;;;22.33;14.77;;;;;;;7.42;100.00;99168.91;5071392;28;20336;-77
2022/01/06 03:37:14;;;;;;;20.83;11.57;;;;;;;7.35;100.00;99200.63;5071366;28;20807;-77
2022/01/06 03:39:42;;;;;;;37.13;17.63;;;;;;;6.95;100.00;99203.50;5071725;28;20194;-77
2022/01/06 03:42:09;;;;;;;34.73;19.67;;;;;;;6.57;100.00;99183.97;5071440;28;20191;-77
2022/01/06 03:44:36;;;;;;;34.63;21.47;;;;;;;6.63;100.00;99215.00;5090477;28;20190;-76
2022/01/06 03:47:05;;;;;;;34.63;18.53;;;;;;;6.37;100.00;99184.53;5092080;28;20272;-78
2022/01/06 03:49:32;;;;;;;35.10;21.00;;;;;;;6.28;100.00;99207.50;5091108;28;20708;-76
2022/01/06 03:51:59;;;;;;;33.10;18.27;;;;;;;6.36;100.00;99211.09;5076125;28;20203;-76
2022/01/06 03:54:26;;;;;;;38.77;19.60;;;;;;;6.44;100.00;99181.22;5074726;28;20187;-77
2022/01/06 03:56:52;;;;;;;37.60;21.87;;;;;;;6.35;100.00;99183.63;5074975;28;20210;-76
2022/01/06 03:59:20;;;;;;;37.23;22.07;;;;;;;6.44;100.00;99183.78;5088670;28;20251;-77
2022/01/06 04:01:47;;;;;;;37.17;18.20;;;;;;;6.49;100.00;99187.28;5094827;28;20194;-77
2022/01/06 04:04:15;;;;;;;30.77;18.90;;;;;;;6.60;100.00;99199.50;5094581;28;20279;-76
2022/01/06 04:06:42;;;;;;;36.80;20.07;;;;;;;6.70;100.00;99201.38;5093441;28;20194;-76
2022/01/06 04:09:09;;;;;;;36.73;19.10;;;;;;;6.73;100.00;99198.84;5086071;28;20244;-78
2022/01/06 04:11:36;;;;;;;30.47;16.97;;;;;;;6.51;100.00;99182.19;5095283;28;20195;-76
2022/01/06 04:14:03;;;;;;;27.83;14.83;;;;;;;6.73;100.00;99193.69;5076268;28;20198;-77
2022/01/06 04:16:34;;;;;;;27.33;16.03;;;;;;;6.59;100.00;99193.47;5075650;28;20183;-76
2022/01/06 04:19:01;;;;;;;53.07;27.03;;;;;;;6.71;100.00;99188.50;5091980;28;20190;-76
2022/01/06 04:21:29;;;;;;;31.17;17.13;;;;;;;6.71;100.00;99161.88;5076177;28;20265;-77
2022/01/06 04:23:56;;;;;;;29.53;14.50;;;;;;;6.93;100.00;99187.13;5087618;28;20198;-78
2022/01/06 04:26:22;;;;;;;30.63;16.33;;;;;;;7.14;100.00;99192.59;5080640;28;20627;-77
2022/01/06 04:28:49;;;;;;;23.37;13.37;;;;;;;7.31;100.00;99193.69;5076726;28;20639;-76
2022/01/06 04:31:16;;;;;;;19.00;10.97;;;;;;;7.47;100.00;99205.94;5074169;28;20222;-76
2022/01/06 04:33:43;;;;;;;12.70;8.17;;;;;;;7.62;100.00;99204.41;5083121;28;20197;-77
2022/01/06 04:36:10;;;;;;;32.93;14.07;;;;;;;7.41;100.00;99138.84;5102084;28;20189;-78
2022/01/06 04:38:38;;;;;;;47.40;16.37;;;;;;;7.79;100.00;99228.69;5093761;28;20197;-77
2022/01/06 04:41:05;;;;;;;29.13;17.10;;;;;;;7.00;100.00;99194.09;5097855;28;20723;-78
2022/01/06 04:43:32;;;;;;;28.67;17.17;;;;;;;6.99;100.00;99238.78;5100384;28;20189;-77
2022/01/06 04:46:00;;;;;;;36.77;18.07;;;;;;;6.67;100.00;99240.81;5104300;28;20678;-77
2022/01/06 04:48:27;;;;;;;32.23;19.33;;;;;;;6.44;100.00;99224.97;5098819;28;20218;-76
2022/01/06 04:50:53;;;;;;;32.47;18.83;;;;;;;6.23;100.00;99219.44;5090807;28;20708;-77
2022/01/06 04:53:20;;;;;;;35.60;19.57;;;;;;;5.97;100.00;99212.94;5091902;28;20582;-76
2022/01/06 04:55:51;;;;;;;45.03;21.57;;;;;;;6.01;100.00;99224.16;5093932;28;20187;-78
2022/01/06 04:58:17;;;;;;;164.13;48.87;;;;;;;6.08;100.00;99229.47;5092813;28;20206;-76
2022/01/06 05:00:44;;;;;;;76.23;30.33;;;;;;;5.97;100.00;99223.22;5093933;28;20194;-76
2022/01/06 05:03:11;;;;;;;42.27;22.23;;;;;;;5.95;100.00;99227.50;5093549;28;20198;-78
2022/01/06 05:05:38;;;;;;;52.97;27.00;;;;;;;5.97;100.00;99236.09;5078902;28;20241;-77
2022/01/06 05:08:05;;;;;;;58.30;29.37;;;;;;;5.85;100.00;99241.81;5079169;28;20585;-78
2022/01/06 05:10:32;;;;;;;51.37;26.50;;;;;;;5.86;100.00;99242.72;5084746;28;20219;-75
2022/01/06 05:13:00;;;;;;;50.07;25.47;;;;;;;5.83;100.00;99248.66;5075304;28;20187;-76
2022/01/06 05:15:27;;;;;;;36.90;21.80;;;;;;;5.90;100.00;99249.69;5081726;28;20195;-78
2022/01/06 05:17:54;;;;;;;39.73;23.07;;;;;;;5.74;100.00;99211.59;5073602;28;20191;-76
2022/01/06 05:20:25;;;;;;;45.57;22.40;;;;;;;5.84;100.00;99270.09;5083939;28;20206;-75
2022/01/06 05:22:55;;;;;;;34.33;20.37;;;;;;;5.54;100.00;99241.16;5094291;28;20205;-76
2022/01/06 05:25:25;;;;;;;26.37;16.63;;;;;;;5.69;100.00;99247.50;5073428;28;20648;-76
2022/01/06 05:27:52;;;;;;;38.70;20.83;;;;;;;5.43;100.00;99216.09;5072125;28;20248;-75
2022/01/06 05:30:20;;;;;;;31.53;18.80;;;;;;;5.88;100.00;99256.50;5078177;28;20653;-76
2022/01/06 05:32:47;;;;;;;40.20;20.83;;;;;;;5.93;100.00;99266.03;5093293;28;20198;-76
2022/01/06 05:35:15;;;;;;;37.30;18.40;;;;;;;5.56;100.00;99200.94;5073124;28;20582;-74
2022/01/06 05:37:42;;;;;;;42.77;22.63;;;;;;;5.64;100.00;99285.09;5072725;28;20198;-77
2022/01/06 05:40:10;;;;;;;42.23;22.17;;;;;;;5.46;100.00;99303.56;5076708;28;20190;-78
2022/01/06 05:42:37;;;;;;;58.27;26.77;;;;;;;5.34;100.00;99256.16;5080191;28;20186;-77
2022/01/06 05:45:04;;;;;;;43.70;23.53;;;;;;;5.44;100.00;99264.13;5092159;28;20198;-75
2022/01/06 05:47:33;;;;;;;46.20;25.10;;;;;;;5.20;100.00;99285.81;5092369;28;20197;-77
2022/01/06 05:49:59;;;;;;;41.83;21.87;;;;;;;5.14;100.00;99291.66;5088293;28;20574;-76
2022/01/06 05:52:26;;;;;;;59.30;28.10;;;;;;;5.21;100.00;99270.41;5073154;28;20198;-71
2022/01/06 05:54:53;;;;;;;31.33;17.77;;;;;;;5.28;100.00;99251.75;5077442;28;20190;-73
2022/01/06 05:57:20;;;;;;;43.47;20.03;;;;;;;5.56;100.00;99308.94;5092436;28;20198;-74
2022/01/06 05:59:47;;;;;;;49.47;23.53;;;;;;;5.56;100.00;99278.06;5076520;28;20629;-74
2022/01/06 06:02:14;;;;;;;45.97;24.40;;;;;;;5.56;100.00;99278.06;5072758;28;20210;-72
2022/01/06 06:04:42;;;;;;;31.77;18.53;;;;;;;5.79;100.00;99259.72;5073149;28;20245;-73
2022/01/06 06:07:09;;;;;;;42.10;21.57;;;;;;;5.69;100.00;99260.38;5072385;28;20233;-72
2022/01/06 06:09:35;;;;;;;31.77;18.60;;;;;;;5.93;100.00;99273.75;5084851;28;20946;-72
2022/01/06 06:12:02;;;;;;;23.27;15.10;;;;;;;6.22;100.00;99274.31;5071981;28;20677;-73
2022/01/06 06:14:29;;;;;;;55.03;26.23;;;;;;;6.21;100.00;99270.00;5079266;28;20194;-73
2022/01/06 06:16:56;;;;;;;49.50;23.90;;;;;;;6.29;100.00;99288.19;5076131;28;21904;-73
2022/01/06 06:19:22;;;;;;;43.80;22.57;;;;;;;6.40;100.00;99299.56;5083654;28;20704;-73
2022/01/06 06:21:51;;;;;;;40.27;23.27;;;;;;;6.45;100.00;99314.25;5075622;28;20203;-73
2022/01/06 06:24:19;;;;;;;51.73;26.77;;;;;;;6.36;100.00;99314.06;5072063;28;20576;-72
2022/01/06 06:26:45;;;;;;;55.13;27.33;;;;;;;6.05;100.00;99327.19;5073262;28;20191;-74
2022/01/06 06:29:12;;;;;;;63.33;32.47;;;;;;;6.15;100.00;99331.66;5073679;28;20227;-75
2022/01/06 06:31:39;;;;;;;63.20;32.03;;;;;;;6.17;100.00;99322.25;5091158;28;20233;-75
2022/01/06 06:34:06;;;;;;;53.97;29.70;;;;;;;6.01;100.00;99329.63;5092064;28;20205;-76
2022/01/06 06:36:32;;;;;;;56.37;28.70;;;;;;;6.07;100.00;99310.03;5090911;28;20676;-73
2022/01/06 06:39:01;;;;;;;53.23;29.27;;;;;;;6.13;100.00;99324.75;5092034;28;20193;-73
2022/01/06 06:41:27;;;;;;;59.40;29.23;;;;;;;5.99;100.00;99311.63;5092317;28;20205;-73
2022/01/06 06:43:54;;;;;;;54.93;28.80;;;;;;;6.12;100.00;99313.59;5084844;28;20240;-73
2022/01/06 06:46:21;;;;;;;57.37;28.03;;;;;;;5.92;100.00;99335.47;5072521;28;20637;-73
2022/01/06 06:48:48;;;;;;;68.27;31.87;;;;;;;6.19;100.00;99341.19;5079493;28;20198;-73
2022/01/06 06:51:15;;;;;;;50.30;29.53;;;;;;;6.10;100.00;99299.81;5092006;28;20226;-74
2022/01/06 06:53:42;;;;;;;74.13;35.63;;;;;;;6.20;100.00;99339.50;5092223;28;20191;-74
2022/01/06 06:56:11;;;;;;;59.27;28.20;;;;;;;6.16;100.00;99340.25;5092034;28;20217;-74
2022/01/06 06:58:37;;;;;;;44.33;22.40;;;;;;;6.27;100.00;99339.66;5091122;28;20210;-75
2022/01/06 07:01:04;;;;;;;49.90;24.40;;;;;;;6.29;100.00;99350.81;5092020;28;20194;-74
2022/01/06 07:03:31;;;;;;;46.00;26.13;;;;;;;6.36;100.00;99355.25;5091949;28;20269;-76
2022/01/06 07:05:58;;;;;;;55.43;27.70;;;;;;;6.33;100.00;99333.75;5091752;28;20225;-74
2022/01/06 07:08:25;;;;;;;44.80;22.80;;;;;;;6.36;100.00;99350.13;5091926;28;20190;-75
2022/01/06 07:10:51;;;;;;;46.60;24.00;;;;;;;6.45;100.00;99328.84;5091604;28;20230;-74
2022/01/06 07:13:20;;;;;;;43.03;24.43;;;;;;;6.56;100.00;99326.47;5091489;28;20186;-74
2022/01/06 07:15:47;;;;;;;34.43;20.83;;;;;;;6.70;100.00;99330.16;5090954;28;20190;-73
2022/01/06 07:18:14;;;;;;;50.40;25.70;;;;;;;7.02;100.00;99329.00;5091538;28;20610;-72
2022/01/06 07:20:41;;;;;;;49.07;27.97;;;;;;;6.78;100.00;99328.56;5091773;28;20214;-73
2022/01/06 07:23:08;;;;;;;44.80;25.87;;;;;;;6.56;100.00;99323.91;5096759;28;20194;-72
2022/01/06 07:25:34;;;;;;;50.87;23.97;;;;;;;6.56;100.00;99347.06;5095932;28;20190;-73
2022/01/06 07:28:01;;;;;;;44.33;24.23;;;;;;;6.62;100.00;99342.03;5089010;28;20205;-73
2022/01/06 07:30:31;;;;;;;43.50;22.77;;;;;;;6.92;100.00;99350.31;5095779;28;20221;-72
2022/01/06 07:32:58;;;;;;;35.60;20.07;;;;;;;6.76;100.00;99338.88;5095509;28;20194;-73
2022/01/06 07:35:25;;;;;;;41.63;22.80;;;;;;;6.69;100.00;99364.47;5095507;28;20197;-73
2022/01/06 07:37:52;;;;;;;33.83;21.53;;;;;;;6.10;100.00;99329.84;5095833;28;20194;-73
2022/01/06 07:40:20;;;;;;;45.33;25.20;;;;;;;6.49;100.00;99362.38;5095701;28;20194;-72
2022/01/06 07:42:48;;;;;;;47.67;23.93;;;;;;;6.56;100.00;99354.78;5094157;28;20198;-74
2022/01/06 07:45:15;;;;;;;43.70;24.00;;;;;;;6.63;100.00;99354.94;5089717;28;20186;-75
2022/01/06 07:47:55;;;;;;;64.63;35.13;;;;;;;6.54;100.00;99359.03;5094983;28;20209;-73
2022/01/06 07:50:22;;;;;;;50.90;27.27;;;;;;;6.70;100.00;99363.66;5094750;28;20210;-74
2022/01/06 07:52:49;;;;;;;52.03;26.77;;;;;;;6.74;100.00;99353.41;5094654;28;20202;-72
2022/01/06 07:55:16;;;;;;;49.37;24.30;;;;;;;6.87;100.00;99357.09;5094480;28;20722;-72
2022/01/06 07:57:42;;;;;;;45.00;22.40;;;;;;;7.09;100.00;99351.47;5094485;28;20209;-72
2022/01/06 08:00:10;;;;;;;47.03;23.57;;;;;;;7.28;100.00;99352.63;5094315;28;20201;-73
2022/01/06 08:02:37;;;;;;;41.67;21.60;;;;;;;7.47;100.00;99375.28;5095270;28;20186;-73
2022/01/06 08:05:09;;;;;;;44.10;21.60;;;;;;;7.68;100.00;99385.06;5094671;28;20234;-73
2022/01/06 08:07:36;;;;;;;44.50;23.17;;;;;;;7.81;100.00;99381.84;5094436;28;20238;-74
2022/01/06 08:10:03;;;;;;;42.10;23.97;;;;;;;8.02;100.00;99378.69;5094664;28;20198;-72
2022/01/06 08:12:30;;;;;;;49.07;22.67;;;;;;;8.04;100.00;99380.44;5094965;28;20291;-73
2022/01/06 08:14:56;;;;;;;48.47;22.97;;;;;;;8.34;100.00;99386.06;5095199;28;20201;-72
2022/01/06 08:17:23;;;;;;;48.57;23.00;;;;;;;8.54;100.00;99375.06;5094691;28;20578;-73
2022/01/06 08:19:51;;;;;;;56.20;25.33;;;;;;;8.55;100.00;99363.91;5085855;28;20225;-72
2022/01/06 08:22:20;;;;;;;48.47;23.37;;;;;;;8.85;100.00;99396.09;5093403;28;20190;-74
2022/01/06 08:24:47;;;;;;;61.53;31.37;;;;;;;8.95;100.00;99407.44;5093946;28;20202;-72
2022/01/06 08:27:14;;;;;;;75.03;37.13;;;;;;;8.90;100.00;99388.41;5094163;28;20186;-72
2022/01/06 08:29:41;;;;;;;40.37;21.50;;;;;;;9.02;100.00;99396.31;5093210;28;20198;-73
2022/01/06 08:32:08;;;;;;;42.33;22.00;;;;;;;9.24;100.00;99421.50;5093517;28;20225;-73
2022/01/06 08:34:35;;;;;;;48.40;27.30;;;;;;;9.34;100.00;99420.75;5093539;28;20619;-73
2022/01/06 08:37:02;;;;;;;44.10;24.50;;;;;;;9.51;100.00;99422.63;5093901;28;20195;-73
2022/01/06 08:39:30;;;;;;;35.30;19.20;;;;;;;9.59;100.00;99418.38;5093618;28;20194;-73
2022/01/06 08:41:57;;;;;;;27.45;15.40;;;;;;;9.71;100.00;99428.81;5094275;28;20194;-73
2022/01/06 08:44:24;;;;;;;26.27;14.25;;;;;;;9.84;100.00;99418.59;5100873;28;20186;-73
2022/01/06 08:46:52;;;;;;;25.08;13.30;;;;;;;9.76;100.00;99388.31;5096030;28;20198;-73
2022/01/06 08:49:18;;;;;;;25.60;12.57;;;;;;;10.02;100.00;99417.84;5093773;28;20293;-75
2022/01/06 08:51:45;;;;;;;18.63;12.10;;;;;;;10.10;100.00;99408.38;5093469;28;20222;-73
2022/01/06 08:54:12;;;;;;;27.25;13.40;;;;;;;10.23;100.00;99410.22;5093310;28;20673;-73
2022/01/06 08:56:40;;;;;;;44.63;19.92;;;;;;;10.38;100.00;99405.09;5093610;28;20703;-75
2022/01/06 08:59:07;;;;;;;40.00;19.58;;;;;;;10.36;100.00;99380.91;5092548;28;20718;-73
2022/01/06 09:01:34;;;;;;;39.47;17.05;;;;;;;10.58;100.00;99389.66;5093177;28;20198;-74
2022/01/06 09:04:01;;;;;;;31.15;16.25;;;;;;;10.63;100.00;99385.31;5092802;28;20661;-73
2022/01/06 09:06:28;;;;;;;28.77;17.75;;;;;;;10.71;100.00;99388.81;5093878;28;20668;-73
2022/01/06 09:08:54;;;;;;;34.53;18.60;;;;;;;10.85;100.00;99381.94;5093991;28;20229;-73
2022/01/06 09:11:21;;;;;;;54.28;22.08;;;;;;;10.87;100.00;99372.47;5094048;28;20283;-73
2022/01/06 09:13:49;;;;;;;46.58;22.48;;;;;;;11.18;100.00;99386.34;5094340;28;20206;-74
2022/01/06 09:16:16;;;;;;;55.42;21.45;;;;;;;11.34;100.00;99382.88;5093720;28;20194;-74
2022/01/06 09:18:43;;;;;;;52.35;23.30;;;;;;;11.35;100.00;99358.66;5094149;28;20202;-75
2022/01/06 09:21:10;;;;;;;41.38;20.15;;;;;;;11.34;100.00;99325.78;5092816;28;20217;-75
2022/01/06 09:23:38;;;;;;;40.58;16.55;;;;;;;11.62;100.00;99325.78;5093906;28;20206;-76
2022/01/06 09:26:05;;;;;;;35.03;14.85;;;;;;;11.99;100.00;99343.03;5093800;28;20198;-75
2022/01/06 09:28:32;;;;;;;20.55;12.40;;;;;;;11.82;100.00;99378.56;5092830;28;20190;-75
2022/01/06 09:31:00;;;;;;;21.77;13.40;;;;;;;11.52;100.00;99388.97;5093645;28;20226;-75
2022/01/06 09:33:26;;;;;;;29.92;16.15;;;;;;;11.31;100.00;99382.00;5093294;28;20190;-75
2022/01/06 09:35:54;;;;;;;31.13;15.25;;;;;;;11.34;100.00;99382.03;5093750;28;20273;-75
2022/01/06 09:38:21;;;;;;;31.70;16.58;;;;;;;11.22;100.00;99371.63;5093560;28;20198;-75
2022/01/06 09:40:48;;;;;;;32.15;17.67;;;;;;;11.37;100.00;99374.25;5093206;28;20190;-74
2022/01/06 09:43:15;;;;;;;26.90;17.20;;;;;;;11.58;100.00;99355.22;5093096;28;20198;-76
2022/01/06 09:45:43;;;;;;;14.55;9.30;;;;;;;12.35;97.53;99368.03;5092454;28;20567;-77
2022/01/06 09:48:12;;;;;;;15.95;8.18;;;;;;;13.59;83.38;99382.94;5093431;28;20220;-76
2022/01/06 09:50:42;;;;;;;35.97;15.00;;;;;;;12.90;100.00;99373.88;5093129;28;20224;-75
2022/01/06 09:53:10;;;;;;;24.73;16.30;;;;;;;12.34;100.00;99376.75;5093230;28;20225;-76
2022/01/06 09:55:37;;;;;;;29.60;16.15;;;;;;;12.36;100.00;99374.97;5092603;28;20241;-75
2022/01/06 09:58:05;;;;;;;28.52;17.42;;;;;;;12.33;100.00;99364.59;5092410;28;20194;-75
2022/01/06 10:00:33;;;;;;;30.05;15.45;;;;;;;12.39;100.00;99359.38;5092299;28;20222;-75
2022/01/06 10:03:02;;;;;;;11.65;6.55;;;;;;;13.01;90.54;99360.78;5092370;28;20210;-76
2022/01/06 10:05:40;;;;;;;14.13;7.30;;;;;;;13.64;79.45;99386.38;5092318;28;20241;-75
2022/01/06 10:08:07;;;;;;;10.55;5.00;;;;;;;13.94;76.22;99371.34;5092196;28;20194;-74
2022/01/06 10:10:35;;;;;;;15.95;8.07;;;;;;;14.23;77.32;99388.38;5090674;28;20194;-75
2022/01/06 10:13:06;;;;;;;17.08;9.52;;;;;;;13.93;88.90;99382.63;5091751;28;20229;-75
2022/01/06 10:15:35;;;;;;;19.88;11.85;;;;;;;13.73;94.49;99390.66;5091905;28;20255;-75
2022/01/06 10:18:11;;;;;;;14.43;8.85;;;;;;;13.51;93.39;99395.16;5091513;28;20197;-75
2022/01/06 10:20:39;;;;;;;14.13;9.13;;;;;;;13.35;92.78;99389.22;5091761;28;20221;-76
2022/01/06 10:23:12;;;;;;;12.85;8.00;;;;;;;13.39;90.28;99388.31;5092184;28;20205;-76
2022/01/06 10:25:44;;;;;;;13.00;8.20;;;;;;;13.49;88.90;99388.22;5092656;28;20263;-74
2022/01/06 10:28:15;;;;;;;11.70;8.00;;;;;;;13.48;88.88;99383.91;5091839;28;20221;-75
2022/01/06 10:30:48;;;;;;;11.90;7.95;;;;;;;13.39;87.70;99370.09;5092517;28;20194;-74
2022/01/06 10:33:16;;;;;;;10.02;6.68;;;;;;;13.90;78.47;99378.31;5092462;28;20230;-75
2022/01/06 10:35:45;;;;;;;9.48;6.30;;;;;;;14.24;75.45;99390.13;5092454;28;20637;-74
2022/01/06 10:38:12;;;;;;;12.70;6.68;;;;;;;14.67;70.72;99389.66;5092456;28;20186;-75
2022/01/06 10:40:39;;;;;;;6.07;5.13;;;;;;;15.09;68.54;99385.63;5092050;28;20669;-74
2022/01/06 10:43:06;;;;;;;11.30;6.25;;;;;;;15.14;67.03;99387.25;5092089;28;20612;-72
2022/01/06 10:45:35;;;;;;;18.02;5.70;;;;;;;15.09;70.20;99391.69;5092268;28;20201;-73
2022/01/06 10:48:04;;;;;;;20.38;9.05;;;;;;;15.13;67.73;99385.53;5092066;28;20194;-73
2022/01/06 10:50:33;;;;;;;15.05;6.45;;;;;;;15.07;68.11;99385.63;5092184;28;20324;-72
2022/01/06 10:53:04;;;;;;;37.10;16.55;;;;;;;15.22;66.05;99372.34;5092105;28;20229;-73
2022/01/06 10:55:33;;;;;;;19.42;9.25;;;;;;;15.36;66.53;99383.44;5091580;28;20691;-73
2022/01/06 10:58:02;;;;;;;13.93;6.28;;;;;;;15.39;66.08;99372.09;5091100;28;20209;-76
2022/01/06 11:00:31;;;;;;;14.95;6.10;;;;;;;15.43;65.42;99383.34;5092113;28;20275;-74
2022/01/06 11:03:09;;;;;;;10.77;5.63;;;;;;;15.52;64.29;99378.03;5092202;28;20197;-74
2022/01/06 11:05:36;;;;;;;11.73;7.70;;;;;;;15.61;63.41;99385.69;5091435;28;20225;-76
2022/01/06 11:08:07;;;;;;;4.97;4.43;;;;;;;15.72;62.67;99392.47;5092043;28;20206;-75
2022/01/06 11:10:36;;;;;;;7.30;4.47;;;;;;;15.67;61.35;99367.28;5091948;28;20194;-76
2022/01/06 11:13:03;;;;;;;7.28;3.72;;;;;;;15.93;61.43;99380.78;5091808;28;20225;-75
2022/01/06 11:15:30;;;;;;;6.95;4.53;;;;;;;16.02;61.73;99398.91;5091634;28;20194;-74
2022/01/06 11:18:00;;;;;;;8.95;4.50;;;;;;;15.84;61.53;99365.25;5091695;28;20205;-74
2022/01/06 11:20:28;;;;;;;16.23;6.22;;;;;;;16.02;62.33;99391.06;5091530;28;20214;-74
2022/01/06 11:22:57;;;;;;;9.70;5.78;;;;;;;15.89;64.34;99379.09;5091987;28;20221;-74
2022/01/06 11:25:35;;;;;;;11.00;4.80;;;;;;;16.04;63.79;99381.47;5091901;28;20198;-74